Time;durP1;ratioP1;P1;durP2;ratioP2;P2;SDS_P1;SDS_P2;PMS_P1;PMS_P2;Temp;Humidity;BMP_temperature;BMP_pressure;BME280_temperature;BME280_humidity;BME280_pressure;Samples;Min_cycle;Max_cycle;Signal;HPM_P1;HPM_P2
2020/12/08 00:00:19;;;;;;;62.03;28.13;;;;;;;4.32;74.71;99410.86;126140;1098;23348;-61
2020/12/08 00:02:58;;;;;;;57.40;27.83;;;;;;;4.26;74.79;99415.45;126031;1098;23322;-62
2020/12/08 00:05:28;;;;;;;58.93;26.37;;;;;;;4.21;74.73;99425.09;126556;1098;23379;-59
2020/12/08 00:07:58;;;;;;;60.70;25.37;;;;;;;4.16;74.54;99411.87;126282;1098;24946;-61
2020/12/08 00:10:28;;;;;;;59.80;27.75;;;;;;;4.12;74.57;99418.78;126651;1098;23329;-61
2020/12/08 00:12:57;;;;;;;69.10;30.65;;;;;;;4.09;74.90;99412.94;126598;1098;23398;-61
2020/12/08 00:15:27;;;;;;;66.17;29.83;;;;;;;4.10;74.90;99416.45;126434;1098;23289;-60
2020/12/08 00:17:56;;;;;;;59.13;29.35;;;;;;;4.09;75.12;99426.75;126490;1098;23611;-61
2020/12/08 00:20:26;;;;;;;61.40;28.65;;;;;;;4.07;74.84;99423.68;126539;1099;23325;-61
2020/12/08 00:22:55;;;;;;;65.47;28.37;;;;;;;4.00;75.01;99426.70;126415;1099;23462;-60
2020/12/08 00:25:24;;;;;;;56.47;27.13;;;;;;;3.93;75.10;99429.73;126593;1098;23906;-61
2020/12/08 00:27:54;;;;;;;58.63;25.30;;;;;;;3.89;75.20;99418.06;126475;1098;23348;-59
2020/12/08 00:30:23;;;;;;;57.73;24.63;;;;;;;3.87;74.89;99428.79;126551;1098;23347;-62
2020/12/08 00:32:52;;;;;;;56.07;25.53;;;;;;;3.84;74.65;99426.17;126778;1099;25033;-61
2020/12/08 00:35:22;;;;;;;55.93;26.77;;;;;;;3.81;74.91;99425.08;126503;1098;23379;-61
2020/12/08 00:37:51;;;;;;;57.33;26.57;;;;;;;3.77;75.07;99434.72;126455;1098;23305;-61
2020/12/08 00:40:20;;;;;;;59.17;26.57;;;;;;;3.77;75.07;99434.72;126653;1098;23493;-60
2020/12/08 00:42:50;;;;;;;54.30;26.10;;;;;;;3.78;75.24;99437.05;126540;1098;23324;-60
2020/12/08 00:45:19;;;;;;;60.53;26.60;;;;;;;3.74;75.00;99449.44;126560;1099;26919;-60
2020/12/08 00:47:49;;;;;;;57.33;25.83;;;;;;;3.64;75.05;99440.31;126452;1098;23424;-63
2020/12/08 00:50:19;;;;;;;61.10;24.50;;;;;;;3.58;75.24;99447.64;126571;1098;23345;-60
2020/12/08 00:52:48;;;;;;;56.13;25.12;;;;;;;3.57;74.79;99439.82;126561;1098;23348;-62
2020/12/08 00:55:18;;;;;;;54.37;24.83;;;;;;;3.55;75.07;99450.55;126742;1098;27822;-60
2020/12/08 00:57:47;;;;;;;55.97;23.70;;;;;;;3.52;75.35;99454.97;126683;1098;27188;-60
2020/12/08 01:00:16;;;;;;;57.87;25.77;;;;;;;3.49;75.35;99447.60;126456;1098;28351;-61
2020/12/08 01:02:46;;;;;;;54.13;23.50;;;;;;;3.44;75.14;99439.89;126571;1098;26356;-61
2020/12/08 01:05:17;;;;;;;54.90;24.23;;;;;;;3.45;75.71;99441.45;126454;1099;23462;-61
2020/12/08 01:07:47;;;;;;;48.10;22.95;;;;;;;3.42;75.53;99433.28;126583;1098;23322;-61
2020/12/08 01:10:16;;;;;;;54.83;24.37;;;;;;;3.32;75.71;99437.20;126468;1098;23544;-61
2020/12/08 01:12:45;;;;;;;52.80;23.20;;;;;;;3.23;75.48;99441.44;126705;1098;23447;-61
2020/12/08 01:15:15;;;;;;;58.40;25.53;;;;;;;3.19;75.26;99434.50;126636;1098;23601;-60
2020/12/08 01:17:44;;;;;;;52.17;24.27;;;;;;;3.17;75.48;99442.45;126494;1098;23329;-60
2020/12/08 01:20:13;;;;;;;55.63;24.80;;;;;;;3.16;75.60;99438.95;126649;1098;23324;-60
2020/12/08 01:22:43;;;;;;;57.75;25.10;;;;;;;3.15;75.86;99440.16;126556;1098;26308;-60
2020/12/08 01:25:12;;;;;;;53.48;24.50;;;;;;;3.14;76.01;99426.81;126683;1098;23476;-60
2020/12/08 01:27:42;;;;;;;55.37;24.67;;;;;;;3.10;75.85;99428.94;126487;1098;23298;-61
2020/12/08 01:30:11;;;;;;;57.90;26.37;;;;;;;3.02;75.43;99422.13;126594;1098;27774;-61
2020/12/08 01:32:41;;;;;;;57.97;25.43;;;;;;;2.97;75.90;99426.23;126411;1098;23448;-60
2020/12/08 01:35:10;;;;;;;63.47;26.07;;;;;;;2.95;75.57;99422.37;126566;1098;23301;-61
2020/12/08 01:37:39;;;;;;;66.95;27.20;;;;;;;2.93;75.58;99414.55;126545;1098;23337;-60
2020/12/08 01:40:08;;;;;;;60.67;26.07;;;;;;;2.94;75.86;99420.81;126541;1098;23335;-59
2020/12/08 01:42:38;;;;;;;59.40;26.97;;;;;;;2.91;75.90;99419.75;126531;1098;23344;-60
2020/12/08 01:45:08;;;;;;;53.73;25.25;;;;;;;2.90;75.69;99411.90;126577;1098;23674;-60
2020/12/08 01:47:38;;;;;;;59.83;27.40;;;;;;;2.87;76.16;99407.30;126642;1098;27877;-61
2020/12/08 01:50:08;;;;;;;58.67;25.83;;;;;;;2.85;75.87;99406.98;126750;1098;23436;-61
2020/12/08 01:52:38;;;;;;;62.40;28.27;;;;;;;2.79;76.17;99409.54;126558;1098;23955;-63
2020/12/08 01:55:08;;;;;;;56.80;25.55;;;;;;;2.71;76.36;99418.50;126635;1098;23931;-60
2020/12/08 01:57:37;;;;;;;68.43;27.80;;;;;;;2.66;76.34;99414.31;126514;1098;23324;-61
2020/12/08 02:00:06;;;;;;;69.13;27.37;;;;;;;2.64;76.25;99418.72;126707;1098;24138;-61
2020/12/08 02:02:36;;;;;;;54.97;24.20;;;;;;;2.59;76.02;99420.05;126838;1100;23353;-60
2020/12/08 02:05:05;;;;;;;58.27;28.00;;;;;;;2.56;76.44;99423.71;126593;1098;23395;-60
2020/12/08 02:07:34;;;;;;;61.27;25.97;;;;;;;2.57;76.44;99424.46;126872;1098;23443;-60
2020/12/08 02:10:04;;;;;;;62.23;27.90;;;;;;;2.55;76.35;99424.14;126478;1098;28982;-61
2020/12/08 02:12:34;;;;;;;62.73;27.50;;;;;;;2.52;76.69;99428.58;126672;1098;23492;-61
2020/12/08 02:15:03;;;;;;;61.33;26.20;;;;;;;2.51;76.68;99421.51;126492;1098;27952;-60
2020/12/08 02:17:32;;;;;;;62.97;30.27;;;;;;;2.48;77.08;99414.89;126592;1098;23479;-60
2020/12/08 02:20:02;;;;;;;72.33;30.63;;;;;;;2.45;76.61;99421.31;126690;1098;23328;-61
2020/12/08 02:22:31;;;;;;;60.27;28.87;;;;;;;2.42;76.65;99416.67;126710;1098;23450;-62
2020/12/08 02:25:04;;;;;;;69.80;28.30;;;;;;;2.41;76.57;99420.66;126647;1099;25977;-62
2020/12/08 02:27:33;;;;;;;58.87;27.37;;;;;;;2.39;77.04;99422.31;126558;1098;24824;-61
2020/12/08 02:30:02;;;;;;;62.97;27.37;;;;;;;2.37;76.98;99431.02;126558;1098;23441;-61
2020/12/08 02:32:31;;;;;;;65.40;29.03;;;;;;;2.39;76.94;99422.31;126536;1099;24846;-60
2020/12/08 02:35:00;;;;;;;58.17;26.70;;;;;;;2.32;77.04;99423.30;126493;1098;23322;-60
2020/12/08 02:37:29;;;;;;;59.07;27.73;;;;;;;2.29;77.08;99415.16;126558;1098;23376;-60
2020/12/08 02:39:59;;;;;;;63.63;25.07;;;;;;;2.26;76.51;99416.81;126715;1098;23361;-60
2020/12/08 02:42:28;;;;;;;64.87;27.10;;;;;;;2.24;77.33;99422.00;126544;1099;23392;-60
2020/12/08 02:44:58;;;;;;;56.65;26.20;;;;;;;2.22;77.33;99426.40;126570;1100;24120;-60
2020/12/08 02:47:27;;;;;;;60.20;27.73;;;;;;;2.20;77.04;99423.31;126830;1093;23351;-59
2020/12/08 02:49:56;;;;;;;58.00;28.43;;;;;;;2.20;77.14;99426.84;126603;1099;23315;-60
2020/12/08 02:52:26;;;;;;;65.23;29.93;;;;;;;2.19;77.00;99430.80;126839;1098;23512;-61
2020/12/08 02:54:55;;;;;;;70.07;30.67;;;;;;;2.20;77.32;99431.58;126688;1098;23374;-61
2020/12/08 02:57:24;;;;;;;70.70;32.73;;;;;;;2.17;77.21;99424.97;126485;1098;23383;-61
2020/12/08 02:59:53;;;;;;;72.60;30.13;;;;;;;2.14;76.99;99412.09;126564;1098;27128;-61
2020/12/08 03:02:24;;;;;;;69.93;31.67;;;;;;;2.12;77.63;99416.50;126533;1099;26837;-60
2020/12/08 03:04:52;;;;;;;;;;;;;;;2.11;77.48;99428.73;126568;1098;23339;-61
2020/12/08 03:07:21;;;;;;;66.90;30.53;;;;;;;2.09;77.52;99426.41;126631;1098;21505;-59
2020/12/08 03:09:51;;;;;;;69.83;32.37;;;;;;;2.06;77.27;99421.80;126539;1098;23379;-59
2020/12/08 03:12:20;;;;;;;64.35;29.40;;;;;;;2.03;77.47;99421.92;126487;1098;23309;-61
2020/12/08 03:14:49;;;;;;;65.57;31.63;;;;;;;2.03;77.86;99424.67;126560;1098;23392;-59
2020/12/08 03:17:19;;;;;;;63.63;29.13;;;;;;;2.04;77.40;99429.73;126523;1100;23379;-60
2020/12/08 03:19:49;;;;;;;63.77;29.23;;;;;;;2.03;77.53;99424.67;126668;1100;23912;-59
2020/12/08 03:22:19;;;;;;;69.00;30.93;;;;;;;1.99;77.58;99426.73;126505;1098;23377;-59
2020/12/08 03:24:48;;;;;;;;;;;;;;;1.97;77.98;99421.68;126778;1098;23379;-59
2020/12/08 03:27:19;;;;;;;72.73;28.53;;;;;;;1.96;77.76;99427.63;126586;1098;21511;-59
2020/12/08 03:29:48;;;;;;;66.10;29.00;;;;;;;1.92;77.54;99418.72;126624;1098;23376;-60
2020/12/08 03:32:17;;;;;;;67.57;28.60;;;;;;;1.91;77.83;99425.42;126504;1099;23301;-60
2020/12/08 03:34:46;;;;;;;57.13;27.10;;;;;;;1.90;77.58;99430.17;126615;1098;23333;-60
2020/12/08 03:37:15;;;;;;;65.83;29.53;;;;;;;1.85;78.36;99425.20;126605;1099;23458;-60
2020/12/08 03:39:46;;;;;;;61.67;27.73;;;;;;;1.83;77.56;99429.59;126609;1098;23368;-61
2020/12/08 03:42:15;;;;;;;68.12;28.77;;;;;;;1.78;78.36;99422.66;126588;1098;23383;-60
2020/12/08 03:44:44;;;;;;;65.70;27.90;;;;;;;1.80;78.04;99436.00;126531;1098;23438;-60
2020/12/08 03:47:14;;;;;;;67.53;27.77;;;;;;;1.81;78.37;99432.80;126571;1098;27852;-60
2020/12/08 03:49:43;;;;;;;66.03;26.70;;;;;;;1.84;78.18;99431.94;126548;1098;23341;-59
2020/12/08 03:52:13;;;;;;;65.75;28.15;;;;;;;1.82;78.33;99433.58;126600;1098;26315;-60
2020/12/08 03:54:42;;;;;;;68.20;32.90;;;;;;;1.80;78.10;99438.75;126669;1098;27740;-59
2020/12/08 03:57:12;;;;;;;92.00;43.90;;;;;;;1.78;78.21;99436.41;126591;1098;23325;-62
2020/12/08 03:59:41;;;;;;;93.15;45.73;;;;;;;1.74;77.91;99437.75;126604;1098;23379;-60
2020/12/08 04:02:10;;;;;;;101.20;43.93;;;;;;;1.71;78.56;99446.88;126493;1100;23392;-60
2020/12/08 04:04:39;;;;;;;79.17;36.57;;;;;;;1.68;78.13;99445.77;126549;1098;27852;-58
2020/12/08 04:07:09;;;;;;;86.27;39.33;;;;;;;1.69;78.20;99446.55;126577;1099;23739;-60
2020/12/08 04:09:38;;;;;;;81.80;38.65;;;;;;;1.71;78.06;99449.63;126558;1099;23387;-59
2020/12/08 04:12:07;;;;;;;77.07;39.20;;;;;;;1.71;78.59;99442.15;126725;1098;23386;-60
2020/12/08 04:14:37;;;;;;;77.17;38.37;;;;;;;1.70;77.94;99448.09;126602;1099;23530;-59
2020/12/08 04:17:06;;;;;;;70.10;36.57;;;;;;;1.71;78.29;99447.66;126491;1098;23325;-61
2020/12/08 04:19:35;;;;;;;69.87;33.90;;;;;;;1.68;78.76;99445.77;126549;1098;23491;-60
2020/12/08 04:22:05;;;;;;;71.47;33.27;;;;;;;1.68;77.82;99451.27;126567;1098;25089;-60
2020/12/08 04:24:34;;;;;;;71.12;32.42;;;;;;;1.66;78.39;99450.94;126560;1098;26405;-60
2020/12/08 04:27:03;;;;;;;72.27;31.67;;;;;;;1.65;78.02;99444.66;126472;1098;24728;-60
2020/12/08 04:29:32;;;;;;;62.90;29.10;;;;;;;1.64;78.48;99439.59;126620;1099;23379;-59
2020/12/08 04:32:02;;;;;;;65.20;28.63;;;;;;;1.63;78.35;99440.82;126600;1098;23325;-60
2020/12/08 04:34:31;;;;;;;68.07;30.53;;;;;;;1.63;78.00;99452.58;126710;1098;23328;-61
2020/12/08 04:37:01;;;;;;;67.00;29.23;;;;;;;1.63;78.38;99451.83;126579;1098;23391;-60
2020/12/08 04:39:31;;;;;;;60.23;27.03;;;;;;;1.59;78.82;99451.91;126547;1098;26315;-61
2020/12/08 04:42:00;;;;;;;68.55;30.43;;;;;;;1.54;78.84;99448.94;126664;1098;23644;-59
2020/12/08 04:44:30;;;;;;;68.73;29.80;;;;;;;1.55;78.55;99444.98;126580;1098;23406;-61
2020/12/08 04:46:59;;;;;;;65.15;26.65;;;;;;;1.52;78.99;99457.63;126697;1099;23462;-60
2020/12/08 04:49:29;;;;;;;69.47;29.00;;;;;;;1.51;78.50;99436.81;126501;1094;26629;-59
2020/12/08 04:51:59;;;;;;;64.37;27.63;;;;;;;1.51;79.30;99431.32;126544;1098;23379;-65
2020/12/08 04:54:28;;;;;;;65.42;29.90;;;;;;;1.52;78.79;99423.84;126459;1093;29467;-59
2020/12/08 04:56:58;;;;;;;60.50;27.13;;;;;;;1.48;78.59;99425.93;126528;1098;23857;-59
2020/12/08 04:59:28;;;;;;;74.42;28.85;;;;;;;1.43;78.96;99435.48;126720;1098;26001;-59
2020/12/08 05:02:03;;;;;;;72.35;30.05;;;;;;;1.43;79.18;99451.20;126504;1098;23513;-60
2020/12/08 05:04:32;;;;;;;70.57;29.27;;;;;;;1.41;78.55;99451.66;126436;1098;23336;-58
2020/12/08 05:07:03;;;;;;;68.27;31.00;;;;;;;1.42;79.05;99464.21;126549;1098;23392;-59
2020/12/08 05:09:43;;;;;;;60.43;30.52;;;;;;;1.40;78.64;99469.38;126473;1093;25252;-59
2020/12/08 05:12:12;;;;;;;63.23;29.67;;;;;;;1.41;79.52;99464.62;126455;1098;26408;-59
2020/12/08 05:14:44;;;;;;;63.93;29.00;;;;;;;1.37;79.28;99472.20;126422;1098;24965;-59
2020/12/08 05:17:20;;;;;;;65.97;29.17;;;;;;;1.37;79.09;99472.20;126425;1098;23379;-61
2020/12/08 05:20:00;;;;;;;71.27;32.27;;;;;;;1.37;79.62;99453.73;126527;1099;25505;-60
2020/12/08 05:22:29;;;;;;;;;;;;;;;1.38;79.05;99452.55;126336;1098;23463;-60
2020/12/08 05:25:08;;;;;;;73.60;31.00;;;;;;;1.36;79.46;99460.45;126075;1098;24517;-61
2020/12/08 05:27:39;;;;;;;65.75;29.95;;;;;;;1.34;79.78;99459.34;126138;1098;28158;-60
2020/12/08 05:30:07;;;;;;;;;;;;;;;1.32;79.97;99468.03;126077;1098;26933;-60
2020/12/08 05:32:40;;;;;;;67.57;30.30;;;;;;;1.32;79.88;99486.50;126202;1098;21503;-61
2020/12/08 05:35:12;;;;;;;64.07;29.87;;;;;;;1.31;79.38;99488.48;126166;1098;23392;-61
2020/12/08 05:37:43;;;;;;;69.33;29.83;;;;;;;1.31;79.36;99490.45;126182;1099;23400;-60
2020/12/08 05:40:14;;;;;;;74.67;31.83;;;;;;;1.31;79.78;99490.45;126154;1098;26523;-61
2020/12/08 05:42:47;;;;;;;72.97;31.50;;;;;;;1.32;79.61;99497.50;126049;1098;23325;-62
2020/12/08 05:45:20;;;;;;;70.30;32.53;;;;;;;1.32;79.15;99514.78;126412;1099;23379;-57
2020/12/08 05:47:51;;;;;;;66.47;30.47;;;;;;;1.34;79.54;99512.38;126552;1099;23710;-61
2020/12/08 05:50:22;;;;;;;65.23;29.87;;;;;;;1.33;79.72;99502.56;127032;1098;23383;-60
2020/12/08 05:52:53;;;;;;;69.70;30.93;;;;;;;1.31;79.88;99504.20;126746;1099;23325;-59
2020/12/08 05:55:25;;;;;;;66.80;31.80;;;;;;;1.29;79.43;99507.39;126846;1098;23379;-61
2020/12/08 05:57:54;;;;;;;73.83;30.83;;;;;;;1.28;79.94;99503.08;126708;1098;23364;-60
2020/12/08 06:00:25;;;;;;;71.43;30.43;;;;;;;1.28;79.29;99505.08;126673;1098;23607;-58
2020/12/08 06:02:56;;;;;;;75.47;33.53;;;;;;;1.28;79.33;99505.83;126689;1098;23336;-61
2020/12/08 06:05:32;;;;;;;74.27;33.33;;;;;;;1.31;79.90;99504.20;126628;1098;27855;-60
2020/12/08 06:08:13;;;;;;;69.20;34.03;;;;;;;1.36;79.82;99506.42;126727;1098;23290;-63
2020/12/08 06:10:47;;;;;;;70.17;35.47;;;;;;;1.36;79.27;99512.70;126632;1098;24822;-60
2020/12/08 06:13:26;;;;;;;67.00;31.65;;;;;;;1.34;79.96;99519.84;126510;1098;23336;-63
2020/12/08 06:15:58;;;;;;;71.33;32.93;;;;;;;1.33;80.06;99521.03;126438;1098;23942;-60
2020/12/08 06:18:32;;;;;;;75.87;34.40;;;;;;;1.33;79.41;99519.06;127558;1093;26841;-60
2020/12/08 06:21:03;;;;;;;70.83;31.33;;;;;;;1.32;79.50;99525.00;126492;1098;26854;-60
2020/12/08 06:23:32;;;;;;;69.80;31.83;;;;;;;1.30;79.23;99525.45;126652;1099;23367;-67
2020/12/08 06:26:03;;;;;;;59.48;29.05;;;;;;;1.29;79.97;99539.60;127445;1098;23445;-60
2020/12/08 06:28:32;;;;;;;66.13;32.80;;;;;;;1.27;79.43;99542.80;126791;1098;24031;-59
2020/12/08 06:31:03;;;;;;;69.53;32.63;;;;;;;1.31;79.96;99542.69;126586;1098;23325;-59
2020/12/08 06:33:33;;;;;;;68.27;32.70;;;;;;;1.31;79.15;99540.72;126648;1098;23392;-61
2020/12/08 06:36:03;;;;;;;90.45;35.85;;;;;;;1.29;79.92;99537.63;126775;1099;23382;-59
2020/12/08 06:38:32;;;;;;;54.53;24.90;;;;;;;1.30;79.92;99536.44;126837;1099;23374;-61
2020/12/08 06:41:02;;;;;;;67.78;33.65;;;;;;;1.30;79.64;99536.44;126625;1098;26930;-61
2020/12/08 06:43:31;;;;;;;70.70;34.40;;;;;;;1.28;79.04;99532.58;126579;1098;23329;-62
2020/12/08 06:46:09;;;;;;;88.87;44.23;;;;;;;1.27;79.90;99531.80;126582;1098;23399;-59
2020/12/08 06:48:39;;;;;;;74.53;34.90;;;;;;;1.26;79.13;99554.23;128877;1098;23454;-61
2020/12/08 06:51:18;;;;;;;71.77;33.48;;;;;;;1.27;79.44;99553.02;126895;1099;23460;-60
2020/12/08 06:53:47;;;;;;;73.70;33.83;;;;;;;1.29;79.91;99545.88;126744;1098;23448;-60
2020/12/08 06:56:27;;;;;;;73.80;32.27;;;;;;;1.25;79.12;99550.70;126608;1099;23488;-61
2020/12/08 06:58:57;;;;;;;72.82;32.50;;;;;;;1.27;79.05;99542.02;126517;1098;24051;-58
2020/12/08 07:01:26;;;;;;;85.37;42.30;;;;;;;1.23;79.68;99558.61;126707;1098;24894;-60
2020/12/08 07:03:56;;;;;;;90.67;39.87;;;;;;;1.22;79.49;99561.80;126500;1098;23987;-60
2020/12/08 07:06:26;;;;;;;88.67;39.83;;;;;;;1.24;79.09;99565.64;126728;1098;23339;-59
2020/12/08 07:08:55;;;;;;;;;;;;;;;1.25;79.70;99566.42;126405;1098;23416;-61
2020/12/08 07:11:26;;;;;;;92.27;37.70;;;;;;;1.21;79.72;99571.23;126500;1098;21500;-60
2020/12/08 07:14:00;;;;;;;97.20;40.25;;;;;;;1.19;79.19;99568.94;126681;1098;23309;-61
2020/12/08 07:16:30;;;;;;;93.00;35.23;;;;;;;1.23;79.22;99574.33;126785;1098;26865;-59
2020/12/08 07:19:00;;;;;;;99.97;40.23;;;;;;;1.24;79.41;99570.39;126650;1099;23340;-59
2020/12/08 07:21:30;;;;;;;101.67;40.00;;;;;;;1.23;79.64;99579.83;126462;1098;23324;-60
2020/12/08 07:24:00;;;;;;;99.05;39.95;;;;;;;1.19;79.20;99574.43;126362;1098;27849;-58
2020/12/08 07:26:30;;;;;;;107.32;41.42;;;;;;;1.15;79.71;99570.22;126644;1098;23326;-61
2020/12/08 07:29:01;;;;;;;93.00;35.65;;;;;;;1.15;79.78;99579.25;126532;1098;23402;-58
2020/12/08 07:31:31;;;;;;;83.52;32.38;;;;;;;1.14;79.39;99579.69;126254;1098;23325;-60
2020/12/08 07:34:02;;;;;;;78.60;32.35;;;;;;;1.16;79.57;99583.53;126202;1100;26834;-61
2020/12/08 07:36:33;;;;;;;78.07;33.67;;;;;;;1.20;80.15;99586.95;126198;1098;23379;-61
2020/12/08 07:39:04;;;;;;;101.43;41.73;;;;;;;1.21;79.48;99588.52;126465;1098;27394;-60
2020/12/08 07:41:34;;;;;;;139.17;65.00;;;;;;;1.22;79.47;99600.30;127021;1098;23325;-62
2020/12/08 07:44:13;;;;;;;157.90;72.80;;;;;;;1.21;80.01;99612.48;126546;1098;23397;-60
2020/12/08 07:46:51;;;;;;;174.18;72.62;;;;;;;1.22;79.87;99609.30;126300;1098;23648;-61
2020/12/08 07:49:22;;;;;;;176.40;72.70;;;;;;;1.23;79.47;99612.82;126389;1093;23321;-61
2020/12/08 07:51:51;;;;;;;;;;;;;;;1.23;80.08;99610.85;126447;1099;23379;-61
2020/12/08 07:54:21;;;;;;;116.90;52.15;;;;;;;1.26;79.89;99617.47;126392;1098;21573;-60
2020/12/08 07:56:51;;;;;;;86.17;39.60;;;;;;;1.27;79.90;99608.78;126466;1098;23292;-59
2020/12/08 07:59:21;;;;;;;82.42;36.85;;;;;;;1.29;79.99;99616.59;126428;1098;23379;-60
2020/12/08 08:01:50;;;;;;;94.97;44.80;;;;;;;1.32;79.71;99612.99;126619;1099;24965;-60
2020/12/08 08:04:20;;;;;;;116.10;48.83;;;;;;;1.31;79.97;99612.22;126910;1098;28410;-61
2020/12/08 08:06:50;;;;;;;129.13;53.47;;;;;;;1.34;80.15;99600.37;126703;1098;23329;-62
2020/12/08 08:09:21;;;;;;;100.67;47.35;;;;;;;1.38;79.73;99605.77;126392;1098;23324;-60
2020/12/08 08:11:51;;;;;;;80.77;38.43;;;;;;;1.40;79.77;99609.64;126741;1098;23909;-62
2020/12/08 08:14:23;;;;;;;79.80;35.60;;;;;;;1.41;80.12;99616.67;126367;1098;26226;-62
2020/12/08 08:16:53;;;;;;;80.73;38.17;;;;;;;1.41;79.97;99619.41;126584;1098;23542;-62
2020/12/08 08:19:23;;;;;;;97.92;44.08;;;;;;;1.44;79.99;99613.06;126608;1099;25003;-60
2020/12/08 08:21:52;;;;;;;78.12;37.28;;;;;;;1.42;80.40;99609.97;126466;1098;23436;-61
2020/12/08 08:24:22;;;;;;;88.87;36.10;;;;;;;1.43;80.01;99613.48;126368;1098;23427;-61
2020/12/08 08:26:52;;;;;;;88.65;38.60;;;;;;;1.45;80.31;99614.59;126407;1098;23408;-60
2020/12/08 08:29:22;;;;;;;96.17;41.20;;;;;;;1.48;80.39;99615.72;126451;1098;23329;-61
2020/12/08 08:31:52;;;;;;;101.92;45.63;;;;;;;1.49;79.88;99618.02;126470;1098;23330;-60
2020/12/08 08:34:21;;;;;;;113.65;50.80;;;;;;;1.52;80.45;99613.64;126795;1099;26397;-61
2020/12/08 08:36:53;;;;;;;92.65;42.85;;;;;;;1.55;80.66;99618.30;126445;1098;28426;-61
2020/12/08 08:39:25;;;;;;;107.37;52.27;;;;;;;1.59;80.10;99627.22;126170;1099;28471;-62
2020/12/08 08:41:56;;;;;;;101.15;46.70;;;;;;;1.58;80.81;99631.16;126137;1099;26437;-62
2020/12/08 08:44:26;;;;;;;119.22;52.90;;;;;;;1.60;80.53;99621.28;126468;1098;23366;-61
2020/12/08 08:46:56;;;;;;;90.72;39.42;;;;;;;1.62;80.53;99629.09;126426;1098;23379;-61
2020/12/08 08:49:26;;;;;;;86.12;39.03;;;;;;;1.65;80.29;99636.49;126184;1099;23324;-62
2020/12/08 08:51:57;;;;;;;76.62;38.30;;;;;;;1.67;80.49;99630.55;127688;1098;23365;-61
2020/12/08 08:54:27;;;;;;;79.63;38.03;;;;;;;1.67;80.50;99631.33;126504;1098;23436;-62
2020/12/08 08:56:58;;;;;;;80.73;37.37;;;;;;;1.71;80.79;99634.76;126555;1093;23618;-62
2020/12/08 08:59:28;;;;;;;77.60;33.73;;;;;;;1.74;80.85;99642.13;127046;1099;23369;-61
2020/12/08 09:01:58;;;;;;;69.62;31.12;;;;;;;1.75;80.24;99634.66;126491;1098;23426;-61
2020/12/08 09:04:29;;;;;;;79.40;34.00;;;;;;;1.76;80.30;99631.45;127076;1098;23469;-63
2020/12/08 09:07:00;;;;;;;79.77;35.13;;;;;;;1.79;80.27;99633.36;126660;1100;23438;-61
2020/12/08 09:09:33;;;;;;;91.00;38.60;;;;;;;1.82;81.03;99637.98;126616;1100;27971;-60
2020/12/08 09:12:03;;;;;;;77.07;33.13;;;;;;;1.84;80.95;99641.09;126410;1098;24842;-61
2020/12/08 09:14:33;;;;;;;80.20;37.17;;;;;;;1.87;80.54;99642.19;126398;1098;28360;-61
2020/12/08 09:17:03;;;;;;;77.95;34.50;;;;;;;1.91;80.96;99629.88;126553;1098;23379;-61
2020/12/08 09:19:33;;;;;;;79.95;33.50;;;;;;;1.95;80.98;99638.03;126572;1099;23386;-61
2020/12/08 09:22:06;;;;;;;73.90;35.05;;;;;;;1.98;80.50;99639.92;126532;1098;23441;-61
2020/12/08 09:24:36;;;;;;;85.97;37.70;;;;;;;1.99;80.65;99638.70;126456;1099;23379;-61
2020/12/08 09:27:07;;;;;;;86.27;37.93;;;;;;;2.01;80.85;99653.58;126521;1098;23324;-60
2020/12/08 09:29:37;;;;;;;75.53;33.47;;;;;;;2.02;80.33;99641.38;126638;1098;23493;-60
2020/12/08 09:32:06;;;;;;;;;;;;;;;2.05;81.06;99634.23;126380;1098;23325;-62
2020/12/08 09:34:36;;;;;;;74.37;33.07;;;;;;;2.09;80.92;99624.64;126496;1098;22223;-60
2020/12/08 09:37:07;;;;;;;79.92;35.43;;;;;;;2.13;81.24;99635.57;126474;1098;23530;-62
2020/12/08 09:39:38;;;;;;;80.53;34.73;;;;;;;2.14;81.06;99635.13;126500;1098;23398;-59
2020/12/08 09:42:08;;;;;;;71.43;33.10;;;;;;;2.15;81.01;99631.15;126439;1098;23392;-61
2020/12/08 09:44:37;;;;;;;;;;;;;;;2.18;80.72;99632.27;126510;1098;23333;-59
2020/12/08 09:47:09;;;;;;;111.13;49.23;;;;;;;2.22;80.72;99622.70;126454;1098;21516;-61
2020/12/08 09:49:40;;;;;;;106.17;45.73;;;;;;;2.26;80.76;99634.38;126556;1098;25172;-60
2020/12/08 09:52:11;;;;;;;87.87;40.50;;;;;;;2.32;80.64;99626.34;126518;1099;23652;-61
2020/12/08 09:54:41;;;;;;;75.87;34.60;;;;;;;2.36;81.02;99638.03;126607;1098;27432;-59
2020/12/08 09:57:12;;;;;;;65.75;31.52;;;;;;;2.40;80.82;99636.72;126692;1099;28083;-61
2020/12/08 09:59:42;;;;;;;67.93;31.57;;;;;;;2.43;81.10;99627.59;126522;1098;23329;-61
2020/12/08 10:02:13;;;;;;;67.78;32.75;;;;;;;2.47;80.94;99630.23;126543;1098;23530;-60
2020/12/08 10:04:45;;;;;;;75.17;32.90;;;;;;;2.52;81.14;99631.67;126384;1099;23330;-62
2020/12/08 10:07:18;;;;;;;71.70;32.15;;;;;;;2.55;80.65;99637.07;126446;1099;23347;-59
2020/12/08 10:09:50;;;;;;;59.93;29.53;;;;;;;2.61;80.75;99626.30;126509;1098;25093;-61
2020/12/08 10:12:20;;;;;;;60.37;29.40;;;;;;;2.64;80.95;99625.39;126502;1098;24965;-62
2020/12/08 10:14:50;;;;;;;59.85;27.70;;;;;;;2.69;80.81;99625.61;126378;1098;26799;-62
2020/12/08 10:17:20;;;;;;;59.03;27.63;;;;;;;2.75;80.82;99632.11;126418;1098;25081;-62
2020/12/08 10:19:50;;;;;;;71.25;33.48;;;;;;;2.79;80.82;99632.80;126691;1100;23529;-62
2020/12/08 10:22:20;;;;;;;66.80;31.57;;;;;;;2.81;80.72;99640.63;126359;1099;23396;-61
2020/12/08 10:24:50;;;;;;;68.97;30.40;;;;;;;2.86;81.01;99642.81;126176;1099;23329;-62
2020/12/08 10:27:20;;;;;;;71.57;31.10;;;;;;;2.89;80.43;99631.70;126707;1098;26991;-61
2020/12/08 10:29:51;;;;;;;77.50;30.93;;;;;;;2.94;80.95;99625.61;126081;1098;24186;-61
2020/12/08 10:32:21;;;;;;;67.65;31.75;;;;;;;2.99;80.88;99621.53;126445;1098;23360;-61
2020/12/08 10:34:51;;;;;;;74.57;32.47;;;;;;;3.04;80.83;99620.98;126323;1098;23383;-60
2020/12/08 10:37:22;;;;;;;101.90;43.57;;;;;;;3.09;80.63;99623.17;126361;1098;23362;-61
2020/12/08 10:39:52;;;;;;;74.80;34.70;;;;;;;3.13;80.68;99618.31;126405;1098;25034;-59
2020/12/08 10:42:23;;;;;;;78.07;37.63;;;;;;;3.16;80.63;99626.49;126434;1098;23379;-61
2020/12/08 10:44:52;;;;;;;;;;;;;;;3.21;80.29;99625.14;126545;1098;27857;-59
2020/12/08 10:47:22;;;;;;;79.27;34.50;;;;;;;3.24;80.40;99622.28;126707;1098;25709;-61
2020/12/08 10:49:54;;;;;;;81.35;34.83;;;;;;;3.32;80.28;99630.30;126624;1098;23339;-61
2020/12/08 10:52:24;;;;;;;70.00;30.73;;;;;;;3.36;80.67;99617.94;127134;1098;23393;-60
2020/12/08 10:54:54;;;;;;;66.40;31.87;;;;;;;3.44;80.60;99629.50;126974;1098;23336;-62
2020/12/08 10:57:24;;;;;;;62.13;29.67;;;;;;;3.47;80.32;99614.83;126754;1098;23325;-61
2020/12/08 10:59:54;;;;;;;66.00;31.50;;;;;;;3.51;80.30;99624.53;126684;1098;23435;-60
2020/12/08 11:02:25;;;;;;;62.40;29.50;;;;;;;3.54;80.80;99631.16;126335;1098;26886;-61
2020/12/08 11:04:55;;;;;;;69.85;29.05;;;;;;;3.57;80.47;99636.55;125975;1098;23470;-62
2020/12/08 11:07:25;;;;;;;63.92;29.07;;;;;;;3.63;80.62;99632.00;126037;1093;23292;-61
2020/12/08 11:09:55;;;;;;;72.20;28.35;;;;;;;3.70;80.71;99634.53;126499;1098;23382;-61
2020/12/08 11:12:25;;;;;;;64.55;30.48;;;;;;;3.78;80.77;99629.52;126433;1099;23382;-60
2020/12/08 11:14:56;;;;;;;67.20;29.60;;;;;;;3.86;80.93;99630.80;126449;1098;23390;-62
2020/12/08 11:17:24;;;;;;;;;;;;;;;3.95;80.40;99623.35;126305;1098;23436;-62
2020/12/08 11:19:54;;;;;;;67.30;30.00;;;;;;;4.05;80.75;99626.97;126448;1098;24243;-61
2020/12/08 11:22:24;;;;;;;66.97;30.40;;;;;;;4.11;80.62;99614.13;127275;1098;23448;-60
2020/12/08 11:24:53;;;;;;;66.40;27.00;;;;;;;4.20;80.94;99621.70;126511;1098;28327;-60
2020/12/08 11:27:23;;;;;;;69.73;30.73;;;;;;;4.28;80.68;99622.98;126417;1099;23319;-60
2020/12/08 11:29:53;;;;;;;68.62;30.92;;;;;;;4.36;80.54;99622.27;126566;1098;24962;-61
2020/12/08 11:32:24;;;;;;;66.50;31.73;;;;;;;4.43;80.11;99624.75;126293;1098;23379;-61